createdAt,value
2019-02-28T00:00:07.404Z,20.30
2019-02-28T00:01:20.411Z,12.58
2019-02-28T00:02:28.259Z,14.65
2019-02-28T00:03:32.912Z,13.75
2019-02-28T00:04:39.363Z,18.10
2019-02-28T00:05:43.993Z,16.10
2019-02-28T00:06:48.572Z,15.38
2019-02-28T00:07:53.191Z,12.85
2019-02-28T00:08:57.784Z,12.75
2019-02-28T00:10:02.398Z,11.57
2019-02-28T00:11:08.712Z,16.97
2019-02-28T00:12:13.512Z,12.75
2019-02-28T00:13:21.695Z,13.08
2019-02-28T00:14:27.645Z,15.20
2019-02-28T00:15:32.620Z,15.50
2019-02-28T00:16:37.181Z,18.10
2019-02-28T00:17:43.602Z,12.37
2019-02-28T00:18:49.919Z,11.90
2019-02-28T00:19:55.334Z,12.93
2019-02-28T00:21:06.093Z,15.38
2019-02-28T00:22:07.134Z,12.78
2019-02-28T00:23:11.746Z,12.28
2019-02-28T00:24:17.384Z,22.80
2019-02-28T00:25:21.997Z,17.90
2019-02-28T00:26:26.582Z,20.15
2019-02-28T00:27:31.258Z,12.10
2019-02-28T00:28:35.862Z,11.55
2019-02-28T00:29:40.422Z,12.13
2019-02-28T00:30:45.045Z,12.43
2019-02-28T00:31:50.715Z,23.07
2019-02-28T00:32:56.411Z,21.70
2019-02-28T00:34:04.267Z,18.48
2019-02-28T00:35:12.991Z,22.10
2019-02-28T00:36:16.311Z,36.10
2019-02-28T00:37:20.810Z,16.27
2019-02-28T00:38:29.195Z,19.05
2019-02-28T00:39:34.905Z,17.57
2019-02-28T00:40:38.691Z,23.12
2019-02-28T00:41:44.708Z,19.42
2019-02-28T00:42:50.898Z,16.87
2019-02-28T00:43:56.847Z,14.70
2019-02-28T00:45:03.756Z,16.40
2019-02-28T00:46:09.996Z,19.87
2019-02-28T00:47:16.420Z,16.82
2019-02-28T00:48:21.751Z,15.72
2019-02-28T00:49:27.991Z,17.50
2019-02-28T00:50:32.595Z,20.52
2019-02-28T00:51:37.231Z,16.60
2019-02-28T00:52:41.791Z,14.13
2019-02-28T00:53:46.474Z,14.63
2019-02-28T00:54:51.068Z,15.32
2019-02-28T00:55:55.683Z,14.20
2019-02-28T00:57:00.353Z,13.55
2019-02-28T00:58:04.970Z,15.50
2019-02-28T00:59:09.538Z,15.88
2019-02-28T01:00:15.108Z,12.20
2019-02-28T01:01:19.726Z,15.70
2019-02-28T01:02:24.486Z,12.53
2019-02-28T01:03:29.659Z,12.45
2019-02-28T01:04:34.298Z,13.85
2019-02-28T01:05:38.890Z,15.35
2019-02-28T01:06:43.549Z,14.65
2019-02-28T01:07:49.081Z,13.90
2019-02-28T01:08:56.109Z,15.23
2019-02-28T01:10:01.516Z,13.10
2019-02-28T01:11:10.401Z,13.03
2019-02-28T01:12:18.765Z,13.18
2019-02-28T01:13:20.192Z,12.15
2019-02-28T01:14:24.826Z,15.95
2019-02-28T01:15:29.398Z,14.00
2019-02-28T01:16:33.993Z,13.00
2019-02-28T01:17:38.653Z,12.15
2019-02-28T01:18:43.327Z,13.18
2019-02-28T01:19:47.934Z,13.55
2019-02-28T01:20:52.607Z,12.63
2019-02-28T01:21:57.221Z,13.95
2019-02-28T01:23:01.884Z,13.15
2019-02-28T01:24:06.547Z,10.68
2019-02-28T01:25:11.602Z,14.30
2019-02-28T01:26:16.162Z,13.25
2019-02-28T01:27:21.764Z,12.68
2019-02-28T01:28:26.891Z,12.73
2019-02-28T01:29:32.918Z,12.43
2019-02-28T01:30:40.641Z,12.20
2019-02-28T01:31:45.055Z,14.58
2019-02-28T01:32:50.912Z,11.25
2019-02-28T01:33:56.056Z,11.70
2019-02-28T01:35:05.804Z,12.55
2019-02-28T01:36:08.407Z,13.13
2019-02-28T01:37:14.257Z,11.45
2019-02-28T01:38:19.822Z,11.60
2019-02-28T01:39:24.415Z,12.75
2019-02-28T01:40:29.047Z,10.78
2019-02-28T01:41:33.651Z,10.30
2019-02-28T01:42:38.259Z,12.10
2019-02-28T01:43:42.853Z,12.07
2019-02-28T01:44:47.442Z,11.40
2019-02-28T01:45:52.088Z,12.35
2019-02-28T01:46:56.691Z,12.25
2019-02-28T01:48:01.278Z,10.10
2019-02-28T01:49:05.892Z,11.60
2019-02-28T01:50:10.823Z,11.22
2019-02-28T01:51:15.472Z,11.03
2019-02-28T01:52:20.087Z,9.50
2019-02-28T01:53:24.819Z,10.53
2019-02-28T01:54:29.427Z,10.23
2019-02-28T01:55:34.040Z,10.30
2019-02-28T01:56:38.650Z,10.28
2019-02-28T01:57:44.400Z,11.22
2019-02-28T01:58:50.360Z,10.43
2019-02-28T01:59:55.370Z,10.10
2019-02-28T02:00:59.934Z,10.65
2019-02-28T02:02:06.743Z,10.25
2019-02-28T02:03:10.811Z,10.72
2019-02-28T02:04:15.458Z,9.20
2019-02-28T02:05:21.630Z,10.25
2019-02-28T02:06:26.643Z,9.30
2019-02-28T02:07:33.315Z,9.43
2019-02-28T02:08:38.400Z,10.28
2019-02-28T02:09:46.175Z,11.22
2019-02-28T02:10:54.943Z,10.75
2019-02-28T02:11:57.978Z,9.30
2019-02-28T02:13:03.145Z,11.73
2019-02-28T02:14:11.046Z,9.85
2019-02-28T02:15:16.862Z,10.75
2019-02-28T02:16:26.666Z,10.95
2019-02-28T02:17:27.437Z,10.48
2019-02-28T02:18:32.441Z,11.50
2019-02-28T02:19:37.059Z,10.48
2019-02-28T02:20:42.646Z,13.90
2019-02-28T02:21:47.242Z,12.65
2019-02-28T02:22:52.728Z,19.62
2019-02-28T02:23:57.341Z,12.05
2019-02-28T02:25:03.143Z,37.00
2019-02-28T02:26:08.450Z,14.20
2019-02-28T02:27:16.332Z,10.90
2019-02-28T02:28:20.839Z,15.18
2019-02-28T02:29:25.472Z,15.53
2019-02-28T02:30:30.129Z,25.80
2019-02-28T02:31:34.718Z,21.20
2019-02-28T02:32:39.331Z,18.07
2019-02-28T02:33:50.679Z,11.38
2019-02-28T02:34:50.175Z,12.60
2019-02-28T02:35:54.787Z,10.15
2019-02-28T02:36:59.379Z,15.90
2019-02-28T02:38:04.863Z,9.20
2019-02-28T02:39:15.974Z,10.15
2019-02-28T02:40:16.152Z,17.17
2019-02-28T02:41:20.729Z,9.88
2019-02-28T02:42:25.314Z,9.45
2019-02-28T02:43:29.911Z,9.08
2019-02-28T02:44:35.500Z,8.65
2019-02-28T02:45:43.367Z,8.65
2019-02-28T02:46:46.380Z,8.85
2019-02-28T02:47:50.983Z,9.60
2019-02-28T02:48:55.608Z,9.20
2019-02-28T02:50:00.231Z,9.28
2019-02-28T02:51:10.760Z,9.05
2019-02-28T02:52:11.323Z,8.13
2019-02-28T02:53:15.973Z,9.63
2019-02-28T02:54:20.617Z,8.75
2019-02-28T02:55:28.961Z,8.50
2019-02-28T02:56:31.552Z,8.38
2019-02-28T02:57:36.235Z,10.78
2019-02-28T02:58:40.811Z,9.30
2019-02-28T02:59:45.346Z,9.48
2019-02-28T03:00:51.520Z,8.75
2019-02-28T03:01:57.246Z,9.45
2019-02-28T03:03:06.149Z,7.97
2019-02-28T03:04:08.270Z,8.60
2019-02-28T03:05:13.034Z,8.45
2019-02-28T03:06:17.695Z,9.28
2019-02-28T03:07:24.883Z,9.15
2019-02-28T03:08:35.677Z,8.78
2019-02-28T03:09:36.002Z,9.78
2019-02-28T03:10:40.667Z,9.38
2019-02-28T03:11:45.303Z,8.65
2019-02-28T03:12:49.911Z,9.60
2019-02-28T03:13:54.541Z,9.40
2019-02-28T03:14:59.098Z,9.30
2019-02-28T03:16:03.687Z,8.53
2019-02-28T03:17:11.816Z,9.83
2019-02-28T03:18:14.569Z,9.00
2019-02-28T03:19:19.154Z,9.00
2019-02-28T03:20:23.731Z,9.65
2019-02-28T03:21:28.352Z,9.23
2019-02-28T03:22:32.897Z,8.00
2019-02-28T03:23:39.848Z,8.83
2019-02-28T03:24:50.498Z,8.95
2019-02-28T03:25:50.942Z,8.28
2019-02-28T03:26:55.521Z,9.60
2019-02-28T03:28:00.093Z,8.60
2019-02-28T03:29:07.927Z,8.65
2019-02-28T03:30:26.356Z,9.35
2019-02-28T03:31:19.756Z,8.83
2019-02-28T03:32:24.424Z,9.15
2019-02-28T03:33:29.133Z,9.08
2019-02-28T03:34:33.880Z,10.20
2019-02-28T03:35:43.404Z,8.95
2019-02-28T03:36:55.160Z,10.08
2019-02-28T03:37:50.998Z,12.37
2019-02-28T03:38:55.580Z,9.20
2019-02-28T03:40:05.297Z,8.28
2019-02-28T03:41:16.284Z,9.70
2019-02-28T03:42:16.372Z,10.70
2019-02-28T03:43:21.000Z,9.95
2019-02-28T03:44:25.602Z,11.08
2019-02-28T03:45:35.174Z,10.53
2019-02-28T03:46:37.724Z,9.90
2019-02-28T03:47:42.357Z,11.85
2019-02-28T03:48:52.568Z,10.20
2019-02-28T03:49:57.135Z,11.45
2019-02-28T03:51:01.742Z,10.40
2019-02-28T03:52:06.946Z,10.58
2019-02-28T03:53:11.684Z,9.08
2019-02-28T03:54:16.285Z,8.98
2019-02-28T03:55:20.870Z,9.05
2019-02-28T03:56:28.142Z,9.38
2019-02-28T03:57:33.779Z,9.35
2019-02-28T03:58:42.821Z,9.35
2019-02-28T03:59:44.755Z,10.48
2019-02-28T04:00:49.585Z,9.90
2019-02-28T04:01:54.164Z,10.10
2019-02-28T04:02:59.177Z,10.25
2019-02-28T04:04:10.865Z,10.58
2019-02-28T04:05:10.501Z,9.83
2019-02-28T04:06:15.310Z,11.75
2019-02-28T04:07:21.915Z,9.35
2019-02-28T04:08:30.364Z,9.40
2019-02-28T04:09:43.773Z,10.48
2019-02-28T04:10:42.463Z,14.60
2019-02-28T04:11:47.009Z,10.53
2019-02-28T04:12:51.675Z,10.00
2019-02-28T04:13:56.946Z,9.88
2019-02-28T04:15:05.844Z,10.55
2019-02-28T04:16:10.018Z,9.30
2019-02-28T04:17:14.711Z,18.42
2019-02-28T04:18:19.348Z,15.35
2019-02-28T04:19:23.979Z,11.10
2019-02-28T04:20:36.174Z,20.08
2019-02-28T04:21:34.869Z,10.38
2019-02-28T04:22:39.444Z,10.75
2019-02-28T04:23:44.304Z,11.48
2019-02-28T04:24:48.936Z,11.60
2019-02-28T04:25:56.835Z,11.65
2019-02-28T04:27:05.899Z,18.92
2019-02-28T04:28:06.060Z,14.40
2019-02-28T04:29:10.674Z,13.75
2019-02-28T04:30:15.619Z,12.65
2019-02-28T04:31:20.915Z,11.28
2019-02-28T04:32:27.556Z,11.33
2019-02-28T04:33:37.656Z,12.07
2019-02-28T04:34:38.240Z,11.50
2019-02-28T04:35:42.901Z,13.78
2019-02-28T04:36:47.503Z,13.13
2019-02-28T04:37:55.209Z,12.00
2019-02-28T04:38:59.814Z,12.18
2019-02-28T04:40:06.451Z,11.40
2019-02-28T04:41:11.184Z,12.28
2019-02-28T04:42:15.781Z,11.90
2019-02-28T04:43:20.444Z,11.65
2019-02-28T04:44:25.030Z,13.50
2019-02-28T04:45:29.603Z,12.90
2019-02-28T04:46:34.437Z,16.15
2019-02-28T04:47:40.483Z,14.38
2019-02-28T04:48:45.693Z,13.83
2019-02-28T04:49:53.481Z,14.23
2019-02-28T04:50:57.984Z,13.00
2019-02-28T04:52:02.959Z,15.35
2019-02-28T04:53:07.548Z,15.38
2019-02-28T04:54:12.138Z,13.50
2019-02-28T04:55:16.933Z,12.20
2019-02-28T04:56:21.696Z,12.88
2019-02-28T04:57:26.337Z,14.90
2019-02-28T04:58:31.001Z,14.63
2019-02-28T04:59:35.751Z,14.53
2019-02-28T05:00:40.367Z,14.10
2019-02-28T05:01:46.185Z,14.70
2019-02-28T05:02:53.993Z,14.28
2019-02-28T05:03:59.121Z,14.38
2019-02-28T05:05:04.969Z,14.55
2019-02-28T05:06:09.666Z,16.10
2019-02-28T05:07:14.335Z,15.10
2019-02-28T05:08:19.008Z,14.83
2019-02-28T05:09:23.695Z,15.58
2019-02-28T05:10:28.263Z,17.62
2019-02-28T05:11:33.720Z,15.35
2019-02-28T05:12:39.921Z,16.65
2019-02-28T05:13:48.859Z,16.07
2019-02-28T05:14:55.295Z,15.78
2019-02-28T05:16:00.103Z,16.48
2019-02-28T05:17:04.762Z,17.23
2019-02-28T05:18:10.030Z,16.20
2019-02-28T05:19:15.633Z,17.98
2019-02-28T05:20:20.731Z,17.40
2019-02-28T05:21:25.607Z,18.73
2019-02-28T05:22:30.873Z,16.93
2019-02-28T05:23:36.750Z,18.67
2019-02-28T05:24:42.587Z,17.40
2019-02-28T05:25:49.140Z,17.80
2019-02-28T05:26:57.285Z,18.37
2019-02-28T05:28:02.686Z,17.02
2019-02-28T05:29:13.078Z,17.45
2019-02-28T05:30:19.649Z,18.42
2019-02-28T05:31:27.081Z,19.25
2019-02-28T05:32:35.658Z,17.10
2019-02-28T05:33:42.102Z,17.73
2019-02-28T05:34:47.441Z,18.65
2019-02-28T05:35:57.296Z,19.27
2019-02-28T05:37:01.168Z,20.12
2019-02-28T05:38:07.372Z,17.77
2019-02-28T05:39:12.060Z,18.35
2019-02-28T05:40:17.463Z,18.90
2019-02-28T05:41:22.482Z,19.23
2019-02-28T05:42:30.725Z,18.57
2019-02-28T05:43:35.441Z,19.52
2019-02-28T05:44:40.317Z,20.43
2019-02-28T05:45:48.730Z,18.62
2019-02-28T05:46:52.094Z,18.60
2019-02-28T05:47:56.833Z,20.25
2019-02-28T05:49:01.440Z,18.20
2019-02-28T05:50:07.350Z,20.10
2019-02-28T05:51:12.784Z,21.27
2019-02-28T05:52:17.803Z,19.55
2019-02-28T05:53:22.725Z,21.20
2019-02-28T05:54:27.954Z,20.82
2019-02-28T05:55:33.179Z,20.92
2019-02-28T05:56:37.949Z,20.08
2019-02-28T05:57:44.769Z,20.62
2019-02-28T05:58:49.371Z,19.85
2019-02-28T06:00:01.385Z,21.40
2019-02-28T06:01:01.670Z,20.97
2019-02-28T06:02:06.373Z,20.05
2019-02-28T06:03:10.986Z,20.40
2019-02-28T06:04:15.819Z,20.57
2019-02-28T06:05:20.433Z,20.90
2019-02-28T06:06:25.321Z,21.62
2019-02-28T06:07:30.222Z,20.37
2019-02-28T06:08:35.504Z,21.62
2019-02-28T06:09:41.274Z,21.70
2019-02-28T06:10:46.382Z,22.60
2019-02-28T06:11:50.995Z,21.10
2019-02-28T06:12:55.577Z,21.95
2019-02-28T06:14:00.136Z,22.07
2019-02-28T06:15:05.979Z,22.82
2019-02-28T06:16:12.304Z,22.15
2019-02-28T06:17:17.405Z,23.02
2019-02-28T06:18:26.972Z,21.90
2019-02-28T06:19:29.797Z,22.20
2019-02-28T06:20:34.422Z,22.60
2019-02-28T06:21:39.022Z,28.20
2019-02-28T06:22:44.314Z,27.37
2019-02-28T06:23:48.965Z,27.00
2019-02-28T06:24:53.634Z,27.80
2019-02-28T06:25:59.313Z,29.72
2019-02-28T06:27:06.561Z,27.95
2019-02-28T06:28:12.052Z,27.95
2019-02-28T06:29:16.765Z,24.20
2019-02-28T06:30:21.345Z,23.07
2019-02-28T06:31:25.978Z,22.62
2019-02-28T06:32:30.927Z,23.15
2019-02-28T06:33:38.239Z,22.50
2019-02-28T06:34:46.346Z,23.12
2019-02-28T06:35:53.737Z,22.90
2019-02-28T06:36:57.283Z,24.02
2019-02-28T06:38:02.019Z,24.40
2019-02-28T06:39:07.546Z,25.35
2019-02-28T06:40:13.313Z,24.30
2019-02-28T06:41:17.912Z,24.87
2019-02-28T06:42:22.523Z,23.83
2019-02-28T06:43:27.376Z,25.43
2019-02-28T06:44:32.053Z,24.55
2019-02-28T06:45:37.705Z,25.77
2019-02-28T06:46:43.682Z,26.82
2019-02-28T06:47:50.225Z,25.75
2019-02-28T06:49:01.640Z,25.23
2019-02-28T06:50:01.614Z,25.05
2019-02-28T06:51:06.295Z,24.75
2019-02-28T06:52:11.077Z,26.30
2019-02-28T06:53:15.748Z,25.00
2019-02-28T06:54:23.250Z,27.30
2019-02-28T06:55:28.304Z,25.88
2019-02-28T06:56:33.484Z,25.72
2019-02-28T06:57:38.515Z,26.73
2019-02-28T06:58:43.655Z,26.75
2019-02-28T06:59:48.721Z,26.65
2019-02-28T07:00:56.133Z,25.97
2019-02-28T07:02:01.228Z,27.45
2019-02-28T07:03:06.259Z,27.20
2019-02-28T07:04:14.493Z,26.48
2019-02-28T07:05:24.501Z,28.32
2019-02-28T07:06:27.558Z,27.05
2019-02-28T07:07:32.680Z,26.30
2019-02-28T07:08:37.941Z,27.60
2019-02-28T07:09:43.027Z,28.00
2019-02-28T07:10:48.382Z,27.42
2019-02-28T07:11:54.887Z,27.65
2019-02-28T07:13:04.487Z,27.90
2019-02-28T07:14:13.801Z,27.90
2019-02-28T07:15:23.627Z,27.60
2019-02-28T07:16:24.860Z,30.35
2019-02-28T07:17:29.671Z,28.65
2019-02-28T07:18:34.633Z,29.18
2019-02-28T07:19:39.371Z,28.02
2019-02-28T07:20:44.000Z,29.32
2019-02-28T07:21:48.684Z,28.65
2019-02-28T07:22:55.641Z,31.42
2019-02-28T07:24:02.385Z,28.23
2019-02-28T07:25:09.498Z,30.50
2019-02-28T07:26:18.725Z,29.95
2019-02-28T07:27:23.416Z,30.12
2019-02-28T07:28:29.515Z,30.88
2019-02-28T07:29:34.104Z,29.85
2019-02-28T07:30:38.746Z,30.60
2019-02-28T07:31:43.415Z,30.40
2019-02-28T07:32:49.400Z,29.75
2019-02-28T07:33:54.410Z,30.52
2019-02-28T07:34:59.031Z,31.40
2019-02-28T07:36:09.579Z,29.42
2019-02-28T07:37:12.704Z,31.55
2019-02-28T07:38:17.664Z,30.95
2019-02-28T07:39:22.939Z,31.68
2019-02-28T07:40:27.643Z,30.40
2019-02-28T07:41:32.334Z,30.82
2019-02-28T07:42:37.563Z,31.48
2019-02-28T07:43:45.874Z,30.27
2019-02-28T07:44:50.128Z,31.65
2019-02-28T07:45:54.744Z,32.10
2019-02-28T07:46:59.780Z,31.70
2019-02-28T07:48:04.421Z,31.70
2019-02-28T07:49:09.018Z,31.20
2019-02-28T07:50:13.871Z,31.42
2019-02-28T07:51:22.012Z,30.60
2019-02-28T07:52:24.785Z,32.17
2019-02-28T07:53:30.893Z,32.30
2019-02-28T07:54:35.532Z,34.35
2019-02-28T07:55:40.126Z,34.13
2019-02-28T07:56:44.801Z,34.53
2019-02-28T07:57:53.304Z,33.20
2019-02-28T07:58:55.742Z,32.60
2019-02-28T08:00:00.412Z,33.50
2019-02-28T08:01:06.400Z,34.25
2019-02-28T08:02:11.018Z,33.58
2019-02-28T08:03:15.662Z,32.78
2019-02-28T08:04:20.789Z,34.70
2019-02-28T08:05:30.071Z,32.67
2019-02-28T08:06:32.012Z,33.23
2019-02-28T08:07:36.683Z,34.08
2019-02-28T08:08:41.249Z,34.18
2019-02-28T08:09:46.032Z,31.42
2019-02-28T08:10:50.820Z,33.70
2019-02-28T08:11:56.761Z,34.13
2019-02-28T08:13:03.174Z,36.40
2019-02-28T08:14:09.160Z,34.98
2019-02-28T08:15:21.095Z,35.28
2019-02-28T08:16:22.931Z,44.77
2019-02-28T08:17:27.525Z,37.05
2019-02-28T08:18:33.074Z,35.50
2019-02-28T08:19:38.077Z,37.33
2019-02-28T08:20:42.902Z,34.20
2019-02-28T08:21:50.449Z,38.28
2019-02-28T08:22:56.565Z,42.40
2019-02-28T08:24:02.448Z,36.05
2019-02-28T08:25:08.776Z,37.65
2019-02-28T08:26:15.461Z,35.95
2019-02-28T08:27:19.991Z,43.65
2019-02-28T08:28:26.810Z,40.78
2019-02-28T08:29:31.495Z,41.68
2019-02-28T08:30:36.450Z,35.88
2019-02-28T08:31:41.171Z,34.25
2019-02-28T08:32:47.193Z,35.08
2019-02-28T08:33:52.033Z,39.35
2019-02-28T08:34:59.517Z,59.85
2019-02-28T08:36:02.946Z,39.50
2019-02-28T08:37:07.592Z,46.98
2019-02-28T08:38:12.206Z,38.42
2019-02-28T08:39:17.413Z,53.90
2019-02-28T08:40:22.287Z,48.78
2019-02-28T08:41:26.931Z,47.30
2019-02-28T08:42:31.531Z,43.38
2019-02-28T08:43:36.146Z,40.65
2019-02-28T08:44:41.800Z,38.80
2019-02-28T08:45:46.426Z,51.95
2019-02-28T08:46:51.034Z,41.23
2019-02-28T08:47:56.926Z,50.80
2019-02-28T08:49:06.238Z,39.55
2019-02-28T08:50:10.596Z,58.30
2019-02-28T08:51:15.556Z,41.98
2019-02-28T08:52:20.276Z,41.35
2019-02-28T08:53:24.932Z,40.70
2019-02-28T08:54:29.698Z,58.80
2019-02-28T08:55:34.711Z,41.33
2019-02-28T08:56:39.415Z,39.48
2019-02-28T08:57:44.116Z,41.73
2019-02-28T08:58:48.749Z,41.33
2019-02-28T08:59:56.316Z,39.75
2019-02-28T09:00:59.748Z,37.70
2019-02-28T09:02:04.560Z,39.63
2019-02-28T09:03:09.265Z,43.35
2019-02-28T09:04:13.936Z,38.45
2019-02-28T09:05:18.724Z,43.73
2019-02-28T09:06:23.334Z,40.58
2019-02-28T09:07:27.939Z,39.33
2019-02-28T09:08:32.601Z,41.35
2019-02-28T09:09:37.170Z,42.43
2019-02-28T09:10:43.729Z,40.15
2019-02-28T09:11:48.096Z,37.60
2019-02-28T09:12:52.936Z,38.00
2019-02-28T09:13:57.564Z,39.10
2019-02-28T09:15:02.404Z,40.10
2019-02-28T09:16:08.213Z,36.70
2019-02-28T09:17:15.498Z,38.58
2019-02-28T09:18:19.219Z,39.25
2019-02-28T09:19:23.913Z,39.08
2019-02-28T09:20:28.570Z,38.55
2019-02-28T09:21:33.235Z,38.95
2019-02-28T09:22:37.825Z,38.15
2019-02-28T09:23:42.480Z,41.65
2019-02-28T09:24:47.447Z,40.33
2019-02-28T09:25:53.408Z,37.90
2019-02-28T09:27:01.367Z,38.63
2019-02-28T09:28:05.363Z,38.58
2019-02-28T09:29:09.948Z,40.20
2019-02-28T09:30:20.403Z,40.98
2019-02-28T09:31:26.093Z,36.40
2019-02-28T09:32:30.683Z,38.48
2019-02-28T09:33:35.466Z,38.63
2019-02-28T09:34:41.312Z,38.70
2019-02-28T09:35:46.560Z,39.95
2019-02-28T09:36:55.259Z,38.10
2019-02-28T09:37:57.562Z,38.45
2019-02-28T09:39:02.155Z,38.98
2019-02-28T09:40:10.352Z,39.63
2019-02-28T09:41:14.996Z,38.83
2019-02-28T09:42:19.599Z,39.60
2019-02-28T09:43:24.846Z,39.00
2019-02-28T09:44:31.490Z,39.48
2019-02-28T09:45:35.961Z,41.18
2019-02-28T09:46:40.596Z,40.00
2019-02-28T09:47:46.168Z,38.92
2019-02-28T09:48:50.850Z,37.67
2019-02-28T09:49:55.463Z,37.08
2019-02-28T09:51:00.069Z,39.53
2019-02-28T09:52:06.298Z,40.63
2019-02-28T09:53:15.566Z,39.78
2019-02-28T09:54:18.076Z,45.98
2019-02-28T09:55:22.659Z,44.45
2019-02-28T09:56:27.362Z,49.05
2019-02-28T09:57:31.946Z,40.23
2019-02-28T09:58:36.615Z,39.70
2019-02-28T09:59:41.487Z,38.58
2019-02-28T10:00:46.548Z,38.15
2019-02-28T10:02:01.100Z,41.53
2019-02-28T10:02:59.807Z,39.03
2019-02-28T10:04:04.559Z,44.10
2019-02-28T10:05:09.355Z,39.85
2019-02-28T10:06:16.381Z,47.78
2019-02-28T10:07:23.360Z,44.85
2019-02-28T10:08:26.746Z,51.13
2019-02-28T10:09:31.538Z,50.85
2019-02-28T10:10:36.157Z,37.35
2019-02-28T10:11:40.806Z,43.52
2019-02-28T10:12:45.504Z,39.90
2019-02-28T10:13:53.125Z,40.95
2019-02-28T10:14:56.478Z,45.92
2019-02-28T10:16:01.111Z,36.58
2019-02-28T10:17:05.877Z,35.20
2019-02-28T10:18:10.654Z,36.60
2019-02-28T10:19:29.889Z,36.70
2019-02-28T10:20:35.474Z,37.00
2019-02-28T10:21:40.076Z,38.70
2019-02-28T10:22:47.309Z,40.58
2019-02-28T10:23:53.396Z,34.85
2019-02-28T10:24:57.474Z,38.53
2019-02-28T10:26:02.127Z,37.20
2019-02-28T10:27:07.845Z,39.45
2019-02-28T10:28:12.516Z,42.23
2019-02-28T10:29:17.199Z,39.33
2019-02-28T10:30:31.309Z,49.98
2019-02-28T10:31:36.226Z,47.88
2019-02-28T10:32:35.263Z,40.08
2019-02-28T10:33:39.934Z,35.13
2019-02-28T10:34:44.669Z,37.38
2019-02-28T10:35:49.273Z,40.00
2019-02-28T10:36:54.021Z,37.93
2019-02-28T10:37:58.986Z,53.02
2019-02-28T10:39:08.715Z,42.13
2019-02-28T10:40:17.858Z,43.87
2019-02-28T10:41:24.190Z,35.58
2019-02-28T10:42:28.135Z,36.23
2019-02-28T10:43:32.834Z,36.80
2019-02-28T10:44:37.534Z,36.08
2019-02-28T10:45:42.326Z,34.67
2019-02-28T10:46:53.493Z,35.15
2019-02-28T10:47:54.025Z,38.80
2019-02-28T10:48:58.723Z,34.85
2019-02-28T10:50:03.498Z,36.95
2019-02-28T10:51:14.089Z,36.58
2019-02-28T10:52:14.499Z,36.05
2019-02-28T10:53:19.369Z,33.40
2019-02-28T10:54:23.990Z,36.63
2019-02-28T10:55:31.829Z,37.75
2019-02-28T10:56:39.123Z,36.03
2019-02-28T10:57:44.023Z,35.15
2019-02-28T10:58:50.093Z,37.75
2019-02-28T10:59:55.126Z,35.48
2019-02-28T11:01:07.698Z,36.23
2019-02-28T11:02:07.843Z,35.10
2019-02-28T11:03:12.686Z,34.20
2019-02-28T11:04:17.348Z,36.15
2019-02-28T11:05:25.087Z,35.17
2019-02-28T11:06:30.055Z,34.50
2019-02-28T11:07:37.835Z,35.25
2019-02-28T11:08:44.519Z,35.43
2019-02-28T11:09:48.275Z,37.45
2019-02-28T11:10:53.186Z,34.75
2019-02-28T11:11:57.856Z,34.05
2019-02-28T11:13:02.696Z,34.63
2019-02-28T11:14:08.836Z,35.50
2019-02-28T11:15:17.293Z,36.15
2019-02-28T11:16:23.685Z,35.78
2019-02-28T11:17:30.482Z,35.08
2019-02-28T11:18:36.456Z,37.13
2019-02-28T11:19:41.438Z,35.52
2019-02-28T11:20:46.534Z,33.83
2019-02-28T11:21:51.308Z,34.65
2019-02-28T11:22:55.997Z,33.40
2019-02-28T11:24:00.630Z,34.18
2019-02-28T11:25:05.953Z,34.25
2019-02-28T11:26:10.655Z,33.83
2019-02-28T11:27:19.686Z,35.60
2019-02-28T11:28:27.728Z,33.50
2019-02-28T11:29:29.351Z,36.10
2019-02-28T11:30:36.094Z,34.40
2019-02-28T11:31:41.120Z,34.67
2019-02-28T11:32:46.016Z,32.73
2019-02-28T11:33:51.944Z,34.90
2019-02-28T11:34:56.639Z,35.25
2019-02-28T11:36:01.491Z,34.43
2019-02-28T11:37:08.966Z,33.95
2019-02-28T11:38:13.482Z,33.73
2019-02-28T11:39:20.996Z,32.63
2019-02-28T11:40:27.155Z,34.30
2019-02-28T11:41:31.732Z,32.63
2019-02-28T11:42:36.369Z,31.75
2019-02-28T11:43:41.435Z,31.45
2019-02-28T11:44:46.760Z,32.25
2019-02-28T11:45:52.566Z,32.93
2019-02-28T11:46:57.344Z,31.73
2019-02-28T11:48:03.277Z,33.08
2019-02-28T11:49:07.959Z,30.70
2019-02-28T11:50:12.802Z,32.03
2019-02-28T11:51:17.618Z,29.92
2019-02-28T11:52:24.531Z,31.27
2019-02-28T11:53:29.821Z,31.48
2019-02-28T11:54:34.511Z,30.65
2019-02-28T11:55:39.507Z,31.20
2019-02-28T11:56:44.131Z,32.53
2019-02-28T11:57:49.332Z,32.67
2019-02-28T11:58:55.237Z,31.68
2019-02-28T12:00:00.524Z,30.72
2019-02-28T12:01:10.659Z,31.87
2019-02-28T12:02:14.345Z,33.28
2019-02-28T12:03:19.032Z,30.60
2019-02-28T12:04:23.707Z,31.02
2019-02-28T12:05:28.492Z,30.97
2019-02-28T12:06:33.090Z,32.53
2019-02-28T12:07:37.732Z,32.70
2019-02-28T12:08:44.892Z,30.43
2019-02-28T12:09:51.451Z,29.65
2019-02-28T12:10:58.330Z,31.75
2019-02-28T12:12:02.562Z,31.23
2019-02-28T12:13:07.273Z,31.77
2019-02-28T12:14:12.270Z,32.45
2019-02-28T12:15:17.958Z,30.80
2019-02-28T12:16:22.592Z,31.42
2019-02-28T12:17:28.556Z,31.00
2019-02-28T12:18:39.548Z,29.72
2019-02-28T12:19:40.218Z,31.80
2019-02-28T12:20:44.896Z,32.67
2019-02-28T12:21:49.495Z,31.05
2019-02-28T12:22:54.034Z,31.97
2019-02-28T12:24:00.560Z,33.05
2019-02-28T12:25:07.604Z,31.68
2019-02-28T12:26:14.447Z,32.93
2019-02-28T12:27:18.850Z,30.97
2019-02-28T12:28:23.582Z,33.70
2019-02-28T12:29:28.231Z,32.78
2019-02-28T12:30:33.067Z,32.33
2019-02-28T12:31:37.956Z,31.62
2019-02-28T12:32:43.515Z,33.70
2019-02-28T12:33:48.845Z,33.18
2019-02-28T12:34:53.466Z,32.25
2019-02-28T12:35:58.162Z,33.08
2019-02-28T12:37:03.472Z,29.72
2019-02-28T12:38:08.122Z,31.42
2019-02-28T12:39:12.982Z,31.90
2019-02-28T12:40:20.182Z,31.82
2019-02-28T12:41:25.254Z,32.03
2019-02-28T12:42:34.672Z,33.00
2019-02-28T12:43:40.567Z,32.98
2019-02-28T12:44:46.282Z,32.78
2019-02-28T12:45:51.295Z,31.42
2019-02-28T12:46:55.912Z,30.65
2019-02-28T12:48:00.551Z,32.17
2019-02-28T12:49:05.637Z,30.85
2019-02-28T12:50:11.018Z,31.82
2019-02-28T12:51:15.999Z,30.92
2019-02-28T12:52:20.650Z,31.10
2019-02-28T12:53:25.496Z,31.40
2019-02-28T12:54:33.041Z,31.00
2019-02-28T12:55:38.925Z,32.00
2019-02-28T12:56:45.208Z,30.80
2019-02-28T12:57:49.289Z,32.90
2019-02-28T12:58:53.901Z,32.80
2019-02-28T12:59:58.498Z,32.48
2019-02-28T13:01:03.265Z,31.02
2019-02-28T13:02:08.630Z,33.15
2019-02-28T13:03:19.154Z,34.15
2019-02-28T13:04:19.871Z,31.20
2019-02-28T13:05:24.552Z,31.68
2019-02-28T13:06:29.178Z,31.68
2019-02-28T13:07:34.632Z,30.08
2019-02-28T13:08:41.724Z,29.82
2019-02-28T13:09:48.254Z,30.32
2019-02-28T13:10:52.088Z,30.23
2019-02-28T13:11:57.135Z,31.33
2019-02-28T13:13:06.319Z,30.77
2019-02-28T13:14:08.015Z,31.75
2019-02-28T13:15:13.941Z,30.75
2019-02-28T13:16:20.736Z,30.17
2019-02-28T13:17:25.119Z,30.82
2019-02-28T13:18:29.788Z,30.35
2019-02-28T13:19:34.814Z,30.48
2019-02-28T13:20:39.788Z,32.00
2019-02-28T13:21:46.773Z,30.20
2019-02-28T13:22:50.962Z,31.57
2019-02-28T13:23:56.739Z,32.40
2019-02-28T13:25:01.377Z,31.07
2019-02-28T13:26:06.114Z,33.45
2019-02-28T13:27:12.188Z,37.83
2019-02-28T13:28:18.133Z,34.63
2019-02-28T13:29:23.112Z,34.40
2019-02-28T13:30:28.248Z,34.95
2019-02-28T13:31:35.363Z,36.48
2019-02-28T13:32:39.821Z,32.60
2019-02-28T13:33:48.666Z,33.80
2019-02-28T13:34:50.781Z,38.98
2019-02-28T13:35:55.624Z,33.63
2019-02-28T13:37:02.954Z,35.00
2019-02-28T13:38:07.011Z,33.88
2019-02-28T13:39:11.997Z,33.42
2019-02-28T13:40:17.229Z,32.63
2019-02-28T13:41:26.021Z,34.18
2019-02-28T13:42:28.682Z,35.28
2019-02-28T13:43:33.729Z,35.23
2019-02-28T13:44:39.753Z,33.20
2019-02-28T13:45:44.537Z,33.25
2019-02-28T13:46:49.342Z,34.35
2019-02-28T13:47:54.259Z,33.70
2019-02-28T13:48:59.013Z,35.98
2019-02-28T13:50:05.428Z,33.53
2019-02-28T13:51:10.312Z,35.38
2019-02-28T13:52:19.300Z,33.28
2019-02-28T13:53:23.256Z,32.70
2019-02-28T13:54:27.790Z,34.15
2019-02-28T13:55:35.484Z,34.70
2019-02-28T13:56:40.287Z,35.05
2019-02-28T13:57:46.616Z,33.50
2019-02-28T13:58:53.621Z,40.28
2019-02-28T13:59:58.676Z,35.28
2019-02-28T14:01:05.804Z,35.70
2019-02-28T14:02:10.378Z,32.85
2019-02-28T14:03:17.037Z,33.15
2019-02-28T14:04:26.044Z,36.00
2019-02-28T14:05:27.979Z,32.58